createdAt,value
2022-11-19T00:02:20.322Z,8.60
2022-11-19T00:04:50.156Z,12.13
2022-11-19T00:07:21.160Z,8.67
2022-11-19T00:09:50.178Z,9.60
2022-11-19T00:12:48.656Z,9.40
2022-11-19T00:15:18.133Z,11.17
2022-11-19T00:17:48.032Z,9.83
2022-11-19T00:20:18.512Z,9.50
2022-11-19T00:22:53.521Z,9.10
2022-11-19T00:25:22.812Z,10.07
2022-11-19T00:27:52.701Z,12.33
2022-11-19T00:30:46.395Z,7.60
2022-11-19T00:33:12.167Z,9.33
2022-11-19T00:35:40.893Z,10.03
2022-11-19T00:38:11.671Z,9.80
2022-11-19T00:40:41.028Z,8.30
2022-11-19T00:43:27.701Z,7.03
2022-11-19T00:45:57.752Z,8.73
2022-11-19T00:48:26.640Z,9.63
2022-11-19T00:50:56.232Z,11.50
2022-11-19T00:53:27.615Z,9.47
2022-11-19T00:55:57.330Z,8.60
2022-11-19T00:58:26.918Z,7.90
2022-11-19T01:00:56.151Z,7.00
2022-11-19T01:03:26.173Z,7.63
2022-11-19T01:05:55.780Z,9.03
2022-11-19T01:08:27.283Z,8.37
2022-11-19T01:10:56.657Z,9.20
2022-11-19T01:13:39.236Z,8.50
2022-11-19T01:16:10.551Z,7.90
2022-11-19T01:18:41.384Z,7.83
2022-11-19T01:21:11.916Z,9.10
2022-11-19T01:23:44.477Z,8.37
2022-11-19T01:26:14.766Z,9.17
2022-11-19T01:28:45.060Z,8.67
2022-11-19T01:31:16.379Z,8.93
2022-11-19T01:33:46.438Z,10.30
2022-11-19T01:36:17.509Z,9.67
2022-11-19T01:38:51.153Z,10.17
2022-11-19T01:41:20.817Z,10.73
2022-11-19T01:43:51.265Z,10.00
2022-11-19T01:46:22.166Z,9.80
2022-11-19T01:48:54.021Z,11.10
2022-11-19T01:51:26.592Z,9.90
2022-11-19T01:53:59.304Z,13.13
2022-11-19T01:56:30.604Z,13.00
2022-11-19T01:59:02.157Z,11.47
2022-11-19T02:01:32.531Z,11.77
2022-11-19T02:04:02.971Z,11.67
2022-11-19T02:06:33.620Z,10.57
2022-11-19T02:09:05.247Z,11.63
2022-11-19T02:12:07.342Z,10.43
2022-11-19T02:14:55.738Z,12.30
2022-11-19T02:17:36.439Z,12.50
2022-11-19T02:20:35.097Z,12.50
2022-11-19T02:23:29.903Z,9.23
2022-11-19T02:26:30.291Z,9.30
2022-11-19T02:29:07.175Z,9.50
2022-11-19T02:31:42.090Z,8.97
2022-11-19T02:34:14.646Z,8.07
2022-11-19T02:36:47.291Z,8.90
2022-11-19T02:39:20.617Z,7.93
2022-11-19T02:41:55.101Z,7.23
2022-11-19T02:44:46.786Z,6.97
2022-11-19T02:47:21.238Z,7.47
2022-11-19T02:49:53.433Z,7.70
2022-11-19T02:52:23.417Z,5.50
2022-11-19T02:54:54.204Z,7.53
2022-11-19T02:57:23.653Z,5.63
2022-11-19T03:00:13.847Z,6.40
2022-11-19T03:03:05.117Z,7.50
2022-11-19T03:05:37.866Z,6.30
2022-11-19T03:08:07.784Z,6.57
2022-11-19T03:10:46.083Z,6.07
2022-11-19T03:13:39.335Z,8.93
2022-11-19T03:16:29.080Z,9.53
2022-11-19T03:19:04.265Z,6.90
2022-11-19T03:21:37.242Z,6.47
2022-11-19T03:24:09.357Z,6.37
2022-11-19T03:26:41.374Z,8.30
2022-11-19T03:29:13.113Z,7.47
2022-11-19T03:31:46.317Z,8.37
2022-11-19T03:34:19.960Z,5.67
2022-11-19T03:36:51.167Z,8.43
2022-11-19T03:39:23.135Z,6.70
2022-11-19T03:41:57.887Z,9.77
2022-11-19T03:44:31.046Z,7.10
2022-11-19T03:47:02.673Z,4.90
2022-11-19T03:49:36.191Z,3.53
2022-11-19T03:52:10.670Z,4.63
2022-11-19T03:54:40.308Z,3.37
2022-11-19T03:57:11.484Z,3.33
2022-11-19T03:59:40.839Z,3.27
2022-11-19T04:02:12.387Z,3.17
2022-11-19T04:04:43.826Z,3.90
2022-11-19T04:07:15.594Z,3.37
2022-11-19T04:09:45.817Z,3.50
2022-11-19T04:12:18.631Z,3.30
2022-11-19T04:14:48.246Z,4.53
2022-11-19T04:17:19.329Z,4.17
2022-11-19T04:19:49.935Z,4.13
2022-11-19T04:22:19.521Z,3.80
2022-11-19T04:24:48.583Z,3.80
2022-11-19T04:27:17.702Z,3.17
2022-11-19T04:29:46.981Z,4.47
2022-11-19T04:32:16.580Z,2.50
2022-11-19T04:34:46.192Z,3.20
2022-11-19T04:37:16.914Z,3.47
2022-11-19T04:39:46.066Z,4.20
2022-11-19T04:42:15.395Z,3.77
2022-11-19T04:44:44.618Z,2.67
2022-11-19T04:47:14.445Z,2.53
2022-11-19T04:49:44.245Z,3.77
2022-11-19T04:52:13.341Z,3.20
2022-11-19T04:54:44.382Z,4.93
2022-11-19T04:57:13.903Z,4.37
2022-11-19T04:59:43.364Z,5.83
2022-11-19T05:02:12.609Z,2.50
2022-11-19T05:04:41.853Z,3.17
2022-11-19T05:07:11.077Z,5.37
2022-11-19T05:09:40.111Z,2.80
2022-11-19T05:12:10.759Z,2.63
2022-11-19T05:14:40.013Z,2.77
2022-11-19T05:17:09.982Z,2.97
2022-11-19T05:19:39.869Z,3.40
2022-11-19T05:22:08.930Z,2.70
2022-11-19T05:24:38.555Z,3.00
2022-11-19T05:27:07.917Z,3.60
2022-11-19T05:29:38.287Z,3.77
2022-11-19T05:32:07.771Z,3.53
2022-11-19T05:34:37.103Z,3.93
2022-11-19T05:37:06.341Z,5.10
2022-11-19T05:39:35.325Z,3.40
2022-11-19T05:42:04.453Z,4.43
2022-11-19T05:44:33.430Z,5.30
2022-11-19T05:47:03.790Z,4.80
2022-11-19T05:49:32.799Z,4.20
2022-11-19T05:52:02.057Z,4.17
2022-11-19T05:54:31.693Z,4.53
2022-11-19T05:57:00.401Z,4.73
2022-11-19T05:59:30.026Z,6.03
2022-11-19T06:01:59.058Z,3.93
2022-11-19T06:04:29.534Z,3.77
2022-11-19T06:06:58.622Z,4.80
2022-11-19T06:09:27.733Z,3.73
2022-11-19T06:11:56.746Z,4.63
2022-11-19T06:14:27.774Z,6.00
2022-11-19T06:16:57.961Z,2.97
2022-11-19T06:19:28.748Z,8.77
2022-11-19T06:21:58.385Z,4.17
2022-11-19T06:24:27.528Z,2.97
2022-11-19T06:26:56.972Z,5.20
2022-11-19T06:29:25.934Z,5.97
2022-11-19T06:31:54.636Z,7.93
2022-11-19T06:34:24.846Z,12.03
2022-11-19T06:36:55.545Z,13.47
2022-11-19T06:39:24.894Z,7.73
2022-11-19T06:41:54.143Z,9.13
2022-11-19T06:44:23.866Z,5.50
2022-11-19T06:46:53.550Z,7.73
2022-11-19T06:49:22.749Z,6.63
2022-11-19T06:51:53.017Z,5.63
2022-11-19T06:54:24.213Z,9.17
2022-11-19T06:56:54.055Z,6.13
2022-11-19T06:59:23.468Z,4.93
2022-11-19T07:01:52.815Z,5.53
2022-11-19T07:04:22.664Z,9.90
2022-11-19T07:06:51.939Z,13.43
2022-11-19T07:09:23.550Z,8.90
2022-11-19T07:11:52.488Z,4.00
2022-11-19T07:14:21.594Z,4.73
2022-11-19T07:16:50.937Z,3.93
2022-11-19T07:19:21.886Z,1.80
2022-11-19T07:21:51.178Z,3.73
2022-11-19T07:24:21.472Z,2.70
2022-11-19T07:26:53.126Z,2.63
2022-11-19T07:29:22.870Z,4.30
2022-11-19T07:31:53.742Z,4.33
2022-11-19T07:34:23.229Z,4.47
2022-11-19T07:36:53.113Z,3.00
2022-11-19T07:39:23.108Z,2.50
2022-11-19T07:42:10.959Z,3.37
2022-11-19T07:44:43.665Z,4.93
2022-11-19T07:47:13.231Z,3.33
2022-11-19T07:49:42.097Z,3.50
2022-11-19T07:52:11.363Z,2.77
2022-11-19T07:54:40.605Z,2.67
2022-11-19T07:57:12.325Z,4.37
2022-11-19T07:59:41.418Z,2.63
2022-11-19T08:02:12.902Z,3.37
2022-11-19T08:04:42.050Z,3.10
2022-11-19T08:07:11.750Z,4.50
2022-11-19T08:09:40.647Z,3.53
2022-11-19T08:12:11.516Z,3.00
2022-11-19T08:14:40.503Z,3.33
2022-11-19T08:17:27.630Z,2.30
2022-11-19T08:19:57.022Z,2.23
2022-11-19T08:22:26.359Z,1.47
2022-11-19T08:24:55.726Z,2.93
2022-11-19T08:27:27.255Z,2.50
2022-11-19T08:29:56.311Z,1.50
2022-11-19T08:32:26.455Z,2.77
2022-11-19T08:34:56.070Z,2.97
2022-11-19T08:37:24.838Z,2.37
2022-11-19T08:39:54.803Z,2.10
2022-11-19T08:42:41.348Z,2.53
2022-11-19T08:45:14.625Z,2.17
2022-11-19T08:47:47.666Z,3.20
2022-11-19T08:50:17.203Z,2.60
2022-11-19T08:52:46.471Z,3.47
2022-11-19T08:55:15.468Z,1.63
2022-11-19T08:57:44.940Z,3.23
2022-11-19T09:00:17.723Z,1.93
2022-11-19T09:02:47.175Z,2.83
2022-11-19T09:05:16.153Z,2.23
2022-11-19T09:07:45.497Z,2.13
2022-11-19T09:10:14.874Z,2.40
2022-11-19T09:12:43.785Z,2.83
2022-11-19T09:15:12.888Z,2.13
2022-11-19T09:17:46.983Z,6.20
2022-11-19T09:20:16.298Z,3.80
2022-11-19T09:22:46.232Z,2.70
2022-11-19T09:25:15.163Z,2.10
2022-11-19T09:27:44.931Z,2.40
2022-11-19T09:30:15.842Z,1.70
2022-11-19T09:32:46.608Z,2.30
2022-11-19T09:35:15.977Z,3.73
2022-11-19T09:37:44.701Z,1.80
2022-11-19T09:40:20.184Z,2.43
2022-11-19T09:43:01.584Z,2.30
2022-11-19T09:45:39.766Z,2.87
2022-11-19T09:48:25.123Z,1.57
2022-11-19T09:50:58.301Z,4.57
2022-11-19T09:53:30.612Z,2.53
2022-11-19T09:56:01.783Z,3.90
2022-11-19T09:58:36.469Z,2.10
2022-11-19T10:01:06.637Z,1.70
2022-11-19T10:03:38.161Z,1.97
2022-11-19T10:06:25.337Z,4.00
2022-11-19T10:09:16.795Z,4.10
2022-11-19T10:11:54.642Z,2.63
2022-11-19T10:14:40.564Z,10.07
2022-11-19T10:17:18.189Z,1.70
2022-11-19T10:19:55.694Z,1.77
2022-11-19T10:22:28.106Z,2.50
2022-11-19T10:25:03.701Z,2.97
2022-11-19T10:27:37.478Z,2.47
2022-11-19T10:30:14.428Z,2.00
2022-11-19T10:32:45.620Z,3.73
2022-11-19T10:35:20.922Z,2.37
2022-11-19T10:37:55.904Z,2.37
2022-11-19T10:40:26.757Z,2.13
2022-11-19T10:42:57.808Z,2.23
2022-11-19T10:45:30.335Z,2.50
2022-11-19T10:48:08.853Z,1.93
2022-11-19T10:50:40.131Z,2.40
2022-11-19T10:53:14.498Z,2.80
2022-11-19T10:55:46.975Z,3.60
2022-11-19T10:58:24.068Z,5.70
2022-11-19T11:00:56.194Z,2.33
2022-11-19T11:03:30.331Z,3.53
2022-11-19T11:06:05.689Z,2.87
2022-11-19T11:08:34.777Z,2.67
2022-11-19T11:11:04.656Z,3.37
2022-11-19T11:13:58.733Z,2.00
2022-11-19T11:16:33.825Z,1.53
2022-11-19T11:19:05.803Z,1.77
2022-11-19T11:21:40.132Z,2.07
2022-11-19T11:24:10.005Z,3.63
2022-11-19T11:26:40.675Z,1.83
2022-11-19T11:29:27.261Z,1.90
2022-11-19T11:31:56.373Z,2.70
2022-11-19T11:34:34.510Z,1.87
2022-11-19T11:37:07.028Z,2.80
2022-11-19T11:39:38.798Z,4.33
2022-11-19T11:42:17.249Z,4.43
2022-11-19T11:44:52.629Z,3.23
2022-11-19T11:47:23.765Z,2.17
2022-11-19T11:50:00.364Z,5.27
2022-11-19T11:52:35.251Z,4.10
2022-11-19T11:55:06.595Z,1.93
2022-11-19T11:57:36.211Z,2.10
2022-11-19T12:00:32.626Z,2.57
2022-11-19T12:03:04.308Z,2.03
2022-11-19T12:05:46.070Z,2.40
2022-11-19T12:08:26.748Z,1.70
2022-11-19T12:11:02.150Z,2.70
2022-11-19T12:13:54.174Z,2.00
2022-11-19T12:16:35.354Z,3.00
2022-11-19T12:19:19.723Z,2.03
2022-11-19T12:21:54.390Z,1.60
2022-11-19T12:24:38.938Z,3.90
2022-11-19T12:27:15.307Z,3.47
2022-11-19T12:29:51.123Z,2.20
2022-11-19T12:32:28.306Z,1.83
2022-11-19T12:35:10.216Z,1.80
2022-11-19T12:37:49.526Z,1.40
2022-11-19T12:40:30.013Z,2.10
2022-11-19T12:43:12.510Z,1.90
2022-11-19T12:45:46.290Z,1.77
2022-11-19T12:48:43.051Z,2.10
2022-11-19T12:51:17.319Z,2.13
2022-11-19T12:54:07.222Z,2.37
2022-11-19T12:56:47.991Z,3.07
2022-11-19T12:59:28.044Z,1.43
2022-11-19T13:01:57.423Z,2.73
2022-11-19T13:04:29.663Z,1.80
2022-11-19T13:07:02.696Z,3.27
2022-11-19T13:09:38.708Z,2.47
2022-11-19T13:12:10.638Z,1.57
2022-11-19T13:14:42.368Z,1.50
2022-11-19T13:17:18.800Z,1.30
2022-11-19T13:19:50.796Z,1.50
2022-11-19T13:22:22.216Z,2.73
2022-11-19T13:24:54.025Z,1.57
2022-11-19T13:27:26.489Z,2.87
2022-11-19T13:29:59.173Z,3.10
2022-11-19T13:32:31.525Z,2.03
2022-11-19T13:35:12.445Z,1.60
2022-11-19T13:37:46.863Z,4.60
2022-11-19T13:40:23.301Z,1.60
2022-11-19T13:46:09.899Z,2.23
2022-11-19T13:48:41.969Z,3.00
2022-11-19T13:51:22.541Z,1.50
2022-11-19T13:53:51.554Z,1.37
2022-11-19T13:56:21.956Z,3.03
2022-11-19T13:58:54.047Z,1.40
2022-11-19T14:01:56.374Z,1.27
2022-11-19T14:04:51.277Z,2.57
2022-11-19T14:07:31.429Z,2.20
2022-11-19T14:10:05.878Z,2.30
2022-11-19T14:12:55.573Z,4.20
2022-11-19T14:15:48.487Z,2.83
2022-11-19T14:18:42.156Z,1.60
2022-11-19T14:22:12.936Z,1.67
2022-11-19T14:25:15.888Z,1.57
2022-11-19T14:27:45.100Z,4.10
2022-11-19T14:30:19.280Z,1.47
2022-11-19T14:32:51.612Z,2.23
2022-11-19T14:35:44.382Z,1.93
2022-11-19T14:38:36.831Z,3.13
2022-11-19T14:41:22.824Z,1.57
2022-11-19T14:44:34.282Z,1.57
2022-11-19T14:47:38.209Z,2.17
2022-11-19T14:50:09.547Z,2.07
2022-11-19T14:52:40.122Z,3.27
2022-11-19T14:55:21.646Z,4.03
2022-11-19T14:57:58.524Z,1.60
2022-11-19T15:00:30.756Z,2.20
2022-11-19T15:02:59.750Z,3.10
2022-11-19T15:05:33.626Z,3.07
2022-11-19T15:08:31.366Z,4.70
2022-11-19T15:11:09.104Z,1.93
2022-11-19T15:13:39.256Z,1.80
2022-11-19T15:16:11.597Z,1.97
2022-11-19T15:19:09.817Z,1.90
2022-11-19T15:21:59.136Z,1.60
2022-11-19T15:24:39.537Z,2.20
2022-11-19T15:27:16.546Z,2.87
2022-11-19T15:30:02.517Z,2.40
2022-11-19T15:32:48.340Z,2.60
2022-11-19T15:35:47.162Z,2.23
2022-11-19T15:38:30.939Z,2.50
2022-11-19T15:41:03.002Z,5.53
2022-11-19T15:43:34.980Z,1.97
2022-11-19T15:46:07.675Z,2.23
2022-11-19T15:48:40.797Z,3.67
2022-11-19T15:51:13.564Z,2.53
2022-11-19T15:53:59.111Z,4.47
2022-11-19T15:56:29.406Z,2.50
2022-11-19T15:58:57.973Z,2.00
2022-11-19T16:01:27.257Z,2.17
2022-11-19T16:03:56.139Z,1.80
2022-11-19T16:06:26.626Z,1.57
2022-11-19T16:08:58.489Z,2.20
2022-11-19T16:11:46.557Z,1.90
2022-11-19T16:14:39.876Z,1.63
2022-11-19T16:17:41.847Z,2.73
2022-11-19T16:20:22.019Z,2.87
2022-11-19T16:22:59.667Z,3.30
2022-11-19T16:25:34.033Z,2.10
2022-11-19T16:28:05.630Z,1.90
2022-11-19T16:30:46.570Z,2.07
2022-11-19T16:33:20.260Z,3.10
2022-11-19T16:35:52.919Z,2.37
2022-11-19T16:38:27.597Z,4.23
2022-11-19T16:41:16.119Z,2.07
2022-11-19T16:43:48.851Z,2.30
2022-11-19T16:46:19.796Z,3.17
2022-11-19T16:48:58.439Z,1.63
2022-11-19T16:51:36.526Z,4.30
2022-11-19T16:54:07.175Z,2.73
2022-11-19T16:56:40.803Z,1.70
2022-11-19T16:59:12.531Z,1.97
2022-11-19T17:01:41.481Z,1.40
2022-11-19T17:04:14.943Z,3.57
2022-11-19T17:06:44.795Z,1.73
2022-11-19T17:09:32.114Z,1.43
2022-11-19T17:12:20.674Z,1.40
2022-11-19T17:14:52.428Z,1.83
2022-11-19T17:17:40.692Z,5.97
2022-11-19T17:20:43.579Z,2.67
2022-11-19T17:23:16.435Z,1.73
2022-11-19T17:25:50.264Z,2.30
2022-11-19T17:28:23.175Z,2.00
2022-11-19T17:30:51.764Z,2.33
2022-11-19T17:33:22.980Z,3.33
2022-11-19T17:35:51.936Z,2.10
2022-11-19T17:38:23.835Z,2.97
2022-11-19T17:40:54.576Z,3.07
2022-11-19T17:43:43.589Z,2.13
2022-11-19T17:46:12.461Z,1.90
2022-11-19T17:48:42.725Z,2.33
2022-11-19T17:51:13.067Z,3.30
2022-11-19T17:53:42.165Z,3.17
2022-11-19T17:56:18.493Z,1.93
2022-11-19T17:58:48.543Z,3.43
2022-11-19T18:01:18.120Z,2.27
2022-11-19T18:03:47.503Z,1.80
2022-11-19T18:06:17.882Z,3.00
2022-11-19T18:08:47.797Z,1.50
2022-11-19T18:11:19.218Z,1.67
2022-11-19T18:13:51.583Z,1.13
2022-11-19T18:16:21.941Z,2.20
2022-11-19T18:18:50.824Z,1.80
2022-11-19T18:21:23.059Z,2.10
2022-11-19T18:23:52.911Z,1.40
2022-11-19T18:26:23.784Z,2.00
2022-11-19T18:28:54.411Z,2.90
2022-11-19T18:31:24.578Z,2.97
2022-11-19T18:33:54.118Z,2.43
2022-11-19T18:36:23.486Z,1.47
2022-11-19T18:38:52.311Z,4.40
2022-11-19T18:41:21.319Z,2.53
2022-11-19T18:44:07.762Z,6.70
2022-11-19T18:46:38.004Z,1.80
2022-11-19T18:49:06.808Z,1.53
2022-11-19T18:51:35.831Z,2.50
2022-11-19T18:54:04.921Z,1.70
2022-11-19T18:56:33.562Z,2.77
2022-11-19T18:59:04.990Z,1.90
2022-11-19T19:01:34.391Z,1.70
2022-11-19T19:04:04.843Z,1.60
2022-11-19T19:06:34.434Z,1.83
2022-11-19T19:09:03.379Z,2.57
2022-11-19T19:11:49.416Z,2.80
2022-11-19T19:14:18.714Z,2.87
2022-11-19T19:16:47.331Z,1.90
2022-11-19T19:19:20.513Z,2.50
2022-11-19T19:21:49.876Z,2.00
2022-11-19T19:24:18.466Z,2.10
2022-11-19T19:26:46.834Z,2.53
2022-11-19T19:29:15.623Z,2.40
2022-11-19T19:31:44.661Z,4.13
2022-11-19T19:34:13.564Z,2.93
2022-11-19T19:36:48.856Z,2.23
2022-11-19T19:39:20.906Z,2.40
2022-11-19T19:41:50.256Z,2.10
2022-11-19T19:44:19.341Z,2.43
2022-11-19T19:46:49.815Z,1.53
2022-11-19T19:49:18.905Z,1.80
2022-11-19T19:51:51.800Z,3.27
2022-11-19T19:54:20.642Z,1.60
2022-11-19T19:56:49.692Z,1.83
2022-11-19T19:59:18.989Z,1.30
2022-11-19T20:01:50.644Z,1.20
2022-11-19T20:04:19.435Z,1.60
2022-11-19T20:06:51.907Z,2.30
2022-11-19T20:09:20.879Z,2.27
2022-11-19T20:11:49.518Z,2.13
2022-11-19T20:14:18.481Z,3.07
2022-11-19T20:16:47.166Z,1.50
2022-11-19T20:19:16.427Z,2.37
2022-11-19T20:21:47.145Z,1.80
2022-11-19T20:24:18.900Z,0.97
2022-11-19T20:26:48.003Z,1.37
2022-11-19T20:29:20.599Z,1.30
2022-11-19T20:31:51.741Z,1.43
2022-11-19T20:34:21.142Z,1.43
2022-11-19T20:36:50.644Z,2.20
2022-11-19T20:39:21.588Z,1.63
2022-11-19T20:42:07.857Z,1.13
2022-11-19T20:44:36.652Z,1.73
2022-11-19T20:47:06.669Z,1.50
2022-11-19T20:49:39.634Z,2.03
2022-11-19T20:52:09.079Z,2.13
2022-11-19T20:54:39.185Z,1.37
2022-11-19T20:57:07.975Z,1.63
2022-11-19T20:59:37.097Z,1.70
2022-11-19T21:02:06.235Z,1.50
2022-11-19T21:04:37.252Z,2.37
2022-11-19T21:07:06.384Z,2.13
2022-11-19T21:09:34.970Z,2.30
2022-11-19T21:12:05.325Z,1.30
2022-11-19T21:14:34.360Z,2.47
2022-11-19T21:17:03.387Z,2.23
2022-11-19T21:19:32.054Z,1.73
2022-11-19T21:22:01.191Z,1.47
2022-11-19T21:24:30.303Z,1.27
2022-11-19T21:26:59.222Z,0.80
2022-11-19T21:29:29.762Z,2.17
2022-11-19T21:31:58.456Z,1.43
2022-11-19T21:34:27.215Z,1.43
2022-11-19T21:36:58.223Z,3.10
2022-11-19T21:39:27.463Z,1.07
2022-11-19T21:41:57.043Z,2.23
2022-11-19T21:44:26.671Z,1.50
2022-11-19T21:46:57.147Z,2.33
2022-11-19T21:49:25.892Z,2.27
2022-11-19T21:51:55.342Z,2.93
2022-11-19T21:54:24.764Z,1.77
2022-11-19T21:56:53.973Z,3.20
2022-11-19T21:59:22.588Z,1.93
2022-11-19T22:01:54.723Z,3.17
2022-11-19T22:04:25.183Z,1.67
2022-11-19T22:06:54.214Z,1.73
2022-11-19T22:09:23.331Z,1.63
2022-11-19T22:11:52.363Z,2.10
2022-11-19T22:14:21.523Z,1.50
2022-11-19T22:16:51.790Z,1.67
2022-11-19T22:19:20.806Z,1.47
2022-11-19T22:21:51.534Z,1.70
2022-11-19T22:24:20.327Z,1.20
2022-11-19T22:26:49.377Z,1.00
2022-11-19T22:29:18.371Z,0.90
2022-11-19T22:31:47.708Z,1.10
2022-11-19T22:34:16.655Z,1.33
2022-11-19T22:36:45.311Z,1.87
2022-11-19T22:39:15.403Z,1.13
2022-11-19T22:41:44.788Z,1.53
2022-11-19T22:44:13.765Z,1.67
2022-11-19T22:46:42.635Z,1.40
2022-11-19T22:49:11.682Z,2.63
2022-11-19T22:51:41.089Z,2.60
2022-11-19T22:54:14.026Z,1.60
2022-11-19T22:56:44.534Z,1.60
2022-11-19T22:59:13.140Z,1.93
2022-11-19T23:01:42.100Z,6.83
2022-11-19T23:04:13.825Z,4.40
2022-11-19T23:06:43.606Z,3.00
2022-11-19T23:09:12.259Z,2.63
2022-11-19T23:11:58.293Z,3.43
2022-11-19T23:14:30.151Z,2.63
2022-11-19T23:16:59.192Z,3.03
2022-11-19T23:19:28.455Z,3.77
2022-11-19T23:21:57.518Z,3.40
2022-11-19T23:24:27.058Z,3.20
2022-11-19T23:26:56.179Z,2.67
2022-11-19T23:29:25.039Z,3.43
2022-11-19T23:31:55.707Z,2.23
2022-11-19T23:34:24.656Z,1.77
2022-11-19T23:36:53.400Z,2.47
2022-11-19T23:39:22.107Z,2.13
2022-11-19T23:41:51.387Z,3.53
2022-11-19T23:44:20.650Z,4.17
2022-11-19T23:46:49.379Z,1.40
2022-11-19T23:49:19.909Z,3.13
2022-11-19T23:51:48.868Z,1.37
2022-11-19T23:54:17.942Z,2.07
2022-11-19T23:56:46.997Z,4.27
2022-11-19T23:59:16.388Z,1.73
